Jaciara, Brazil
Current Conditions -  °F | °C
As of 2:00 PM on Tuesday 21 Oct 2014 (Local Time) from SBCY Reporting Station
Scattered Clouds Scattered Clouds  
Wind Chill: 93°   Ceiling: Unl
Heat Index: 96°   Visibility: 6mi
Dew Point: 66°   Wind: 9mph
Humidity: 41%   Direction: 200°SSW
Pressure: 29.88"   Gusts: NA
Location:  15.99°S, 54.96°W
Report Text: SBCY 211700Z 20008KT 9999 SCT020 34/19 Q1012
Loading
Personal Weather Stations






























Interactive Weather Map
Tropical Storm Tracking
New forecast layout! Learn more

10-Day Weather Forecast

Advertisements
Track Severe Weather on mobile